Gemini Flying Field

IT-0382 · 普利亚, 意大利

使用的METAR站距离机场39 km。
罗盘
风向 的 风向 330° Gemini Flying Field 14/32
风: 5 kt, 2 beaufort

5 kt

1 kt
改变
0 ft 1.000 2.000 3.000 4.000 5.000
CAVOK
METAR LIBN 172155Z 33005KT CAVOK 27/24 Q1013 RMK SKC VIS MIN 9999 WIND THR14 33005KT WIND THR32 33005KT BLU

METAR Gemini Flying Field - IT-0382

Gemini Flying Field是,意大利中的小机场。 该机场位于纬度39,89480和经度18,19040。 该机场有一条跑道: 14/32. 这个机场没有ICAO代码,我们使用IT-0382作为参考。 机场在Brindisi FIR中。

该航空气象观测是针对Lecce Galatina Air Base在2024年7月17日 23:55, 当地时间进行的。

机场观察

风向为330°,速度为5 kt。

天气为CAVOK。这意味着在5.000 ft或MSA(最低安全高度)以下(以较高者为准)以下没有云。这也意味着没有观测到积雨云或高耸的积云,可见度为10 km 或者更多或更高。此外,不会有雾,降雨或其他重要天气。

温度和风寒是27 °C。 热指数为31。 露点为24 °C,相对湿度为84%。 海平面上的气压为1013 hPa (QNH)。

白天

今天,太阳从05:33升起,在20:13降落。 这适用于Gemini Flying Field,世界夏令时可能有所不同。 当地时间与世界标准时间之间的时差为+2 小时。 夏令时目前正在进行中。

公司介绍

我们没有关于这个机场的公司信息。

体会

到Vliegles.nl去找飞行课程,跳伞和其他飞行体验。 浏览页面,了解Gemini Flying Field附近所有可用的活动。 你也可以使用搜索功能来寻找你所在地附近的特定飞行课程、跳伞或其他飞行体验。

跑道

Id 标题 侧风 逆风 侧风 %
14/32 137°-317° 1 kt 5 kt 22 %

逆风成分最大的方向会被突出显示,并用于横风计算。 这并不一定意味着这个方向在使用。

温度 & 天气

温度 27 °C
露点 24 °C
相对湿度 84%
热度指数 31 °C
Kp-index 0 (0-9)

评论

SKC VIS MIN 9999 WIND THR14 33005KT WIND THR32 33005KT

白天

日出
05:32 (4:48)
中午
12:53
日落
20:14

小工具

你想在你的网站上有一个关于Gemini Flying Field的当前航空天气(METAR)的小部件吗?

显示HTML代码
报告变更